Time;durP1;ratioP1;P1;durP2;ratioP2;P2;SDS_P1;SDS_P2;PMS_P1;PMS_P2;Temp;Humidity;BMP_temperature;BMP_pressure;BME280_temperature;BME280_humidity;BME280_pressure;Samples;Min_cycle;Max_cycle;Signal;HPM_P1;HPM_P2
2022/11/28 00:00:20;;;;;;;8.43;4.80;;;;;;;6.92;68.05;100546.16;4131273;28;20046;-65
2022/11/28 00:02:23;;;;;;;7.55;4.40;;;;;;;6.93;68.77;100551.38;4147449;28;20112;-65
2022/11/28 00:04:26;;;;;;;8.43;5.07;;;;;;;6.95;69.20;100551.41;4147935;28;20072;-64
2022/11/28 00:06:30;;;;;;;8.05;5.30;;;;;;;6.87;68.33;100550.31;4148601;28;20527;-65
2022/11/28 00:08:35;;;;;;;7.47;4.72;;;;;;;6.73;67.09;100548.19;4148572;28;20050;-64
2022/11/28 00:10:38;;;;;;;12.52;7.88;;;;;;;6.70;66.73;100553.28;4148577;28;20038;-64
2022/11/28 00:12:41;;;;;;;7.38;4.45;;;;;;;6.69;67.13;100553.19;4148549;28;20046;-65
2022/11/28 00:14:44;;;;;;;9.13;5.18;;;;;;;6.73;67.11;100550.78;4147780;28;20057;-65
2022/11/28 00:16:47;;;;;;;7.15;4.28;;;;;;;6.70;67.13;100542.03;4148308;28;20491;-64
2022/11/28 00:18:50;;;;;;;7.38;5.03;;;;;;;6.73;67.22;100544.72;4147384;28;20049;-64
2022/11/28 00:20:59;;;;;;;10.07;5.55;;;;;;;6.76;67.59;100539.63;4148159;28;20084;-65
2022/11/28 00:23:03;;;;;;;6.60;4.45;;;;;;;6.66;66.74;100547.94;4148156;28;20045;-65
2022/11/28 00:25:07;;;;;;;10.85;4.95;;;;;;;6.55;66.80;100545.88;4147726;28;20049;-65
2022/11/28 00:27:09;;;;;;;7.68;4.78;;;;;;;6.40;67.06;100553.16;4147918;28;20385;-65
2022/11/28 00:29:12;;;;;;;9.48;5.70;;;;;;;6.37;67.58;100545.31;4148098;28;21341;-65
2022/11/28 00:31:18;;;;;;;19.30;10.57;;;;;;;6.32;67.25;100546.84;4147760;28;20045;-65
2022/11/28 00:33:21;;;;;;;7.93;4.90;;;;;;;6.28;67.11;100541.59;4147175;28;20059;-65
2022/11/28 00:35:23;;;;;;;7.82;4.57;;;;;;;6.25;67.26;100536.34;4147859;28;20491;-65
2022/11/28 00:37:26;;;;;;;7.22;4.65;;;;;;;6.35;67.73;100541.78;4146469;28;20048;-65
2022/11/28 00:39:31;;;;;;;7.38;4.90;;;;;;;6.45;67.89;100536.09;4146937;28;20054;-65
2022/11/28 00:41:34;;;;;;;9.55;4.68;;;;;;;6.55;68.09;100538.13;4130155;28;20412;-65
2022/11/28 00:43:37;;;;;;;8.13;4.40;;;;;;;6.58;67.64;100535.66;4147035;28;20038;-65
2022/11/28 00:45:40;;;;;;;7.00;4.20;;;;;;;6.61;67.78;100530.59;4132164;28;20050;-65
2022/11/28 00:47:43;;;;;;;5.60;3.83;;;;;;;6.66;67.57;100532.44;4147613;28;20052;-65
2022/11/28 00:49:46;;;;;;;7.20;4.47;;;;;;;6.52;66.82;100535.47;4146178;28;20120;-65
2022/11/28 00:51:48;;;;;;;8.00;4.03;;;;;;;6.55;67.47;100532.97;4147484;28;20038;-65
2022/11/28 00:53:54;;;;;;;7.53;4.25;;;;;;;6.52;67.45;100532.88;4146697;28;20508;-65
2022/11/28 00:55:58;;;;;;;8.13;3.75;;;;;;;6.48;67.29;100538.78;4148154;28;20034;-65
2022/11/28 00:58:00;;;;;;;5.55;4.05;;;;;;;6.49;67.06;100530.19;4146631;28;20092;-65
2022/11/28 01:00:05;;;;;;;8.50;5.00;;;;;;;6.43;66.98;100530.00;4148051;28;20556;-65
2022/11/28 01:02:07;;;;;;;6.20;4.00;;;;;;;6.34;67.29;100538.34;4147797;28;20038;-65
2022/11/28 01:04:13;;;;;;;6.53;4.05;;;;;;;6.28;67.50;100540.72;4147079;28;20048;-65
2022/11/28 01:06:21;;;;;;;6.93;4.05;;;;;;;6.22;67.17;100535.34;4147861;28;20050;-65
2022/11/28 01:08:23;;;;;;;8.57;5.15;;;;;;;6.21;66.64;100534.47;4147876;28;20377;-65
2022/11/28 01:10:26;;;;;;;7.78;4.22;;;;;;;6.20;66.85;100527.53;4146503;28;20562;-65
2022/11/28 01:12:30;;;;;;;6.50;4.47;;;;;;;6.18;66.91;100534.38;4147703;28;20045;-65
2022/11/28 01:14:33;;;;;;;7.25;4.85;;;;;;;6.15;67.56;100529.13;4147008;28;20041;-65
2022/11/28 01:16:37;;;;;;;7.22;4.40;;;;;;;6.13;67.21;100525.59;4147734;28;20046;-65
2022/11/28 01:18:40;;;;;;;7.22;4.68;;;;;;;6.19;67.62;100525.81;4146126;28;20038;-65
2022/11/28 01:20:43;;;;;;;8.05;4.88;;;;;;;6.28;68.12;100523.53;4147538;28;20073;-65
2022/11/28 01:22:46;;;;;;;7.60;5.03;;;;;;;6.36;67.59;100522.91;4147673;28;20042;-65
2022/11/28 01:24:48;;;;;;;7.55;5.05;;;;;;;6.48;66.79;100515.53;4146730;28;20041;-65
2022/11/28 01:26:51;;;;;;;6.97;4.20;;;;;;;6.42;66.88;100513.63;4146188;28;20085;-65
2022/11/28 01:28:56;;;;;;;7.82;5.30;;;;;;;6.27;67.15;100529.50;4129973;28;20467;-64
2022/11/28 01:31:04;;;;;;;7.05;4.68;;;;;;;6.10;67.41;100535.81;4147471;28;20069;-65
2022/11/28 01:33:07;;;;;;;7.68;5.18;;;;;;;6.16;67.34;100540.31;4147291;28;20144;-65
2022/11/28 01:35:10;;;;;;;7.43;4.90;;;;;;;6.21;67.78;100529.31;4146668;28;20100;-65
2022/11/28 01:37:13;;;;;;;8.02;5.43;;;;;;;6.28;67.65;100520.94;4147467;28;20499;-65
2022/11/28 01:39:16;;;;;;;8.35;4.93;;;;;;;6.34;67.77;100519.38;4146120;28;20073;-65
2022/11/28 01:41:21;;;;;;;7.85;5.25;;;;;;;6.50;67.69;100508.72;4147209;28;20042;-65
2022/11/28 01:43:25;;;;;;;6.75;4.32;;;;;;;6.57;66.84;100502.91;4145142;28;20076;-66
2022/11/28 01:45:31;;;;;;;6.90;4.50;;;;;;;6.55;67.62;100499.41;4147591;28;20046;-65
2022/11/28 01:47:34;;;;;;;8.90;4.57;;;;;;;6.49;67.90;100486.31;4147343;28;20050;-65
2022/11/28 01:49:38;;;;;;;8.25;4.40;;;;;;;6.44;68.09;100483.56;4145708;28;20046;-65
2022/11/28 01:51:44;;;;;;;8.48;4.90;;;;;;;6.40;68.77;100473.13;4146950;28;20046;-65
2022/11/28 01:53:48;;;;;;;6.55;4.20;;;;;;;6.35;69.01;100477.25;4146217;28;20042;-65
2022/11/28 01:55:56;;;;;;;8.02;4.65;;;;;;;6.38;69.00;100464.41;4147078;28;20480;-65
2022/11/28 01:57:59;;;;;;;8.15;5.43;;;;;;;6.36;69.63;100466.97;4147376;28;20092;-65
2022/11/28 02:00:07;;;;;;;6.55;4.40;;;;;;;6.41;70.01;100469.69;4136334;28;20046;-64
2022/11/28 02:02:23;;;;;;;14.52;5.20;;;;;;;6.42;69.92;100464.56;4147385;28;20554;-65
2022/11/28 02:04:46;;;;;;;6.18;4.40;;;;;;;6.44;69.23;100452.59;4146247;28;20050;-64
2022/11/28 02:06:49;;;;;;;9.52;5.07;;;;;;;6.54;68.63;100453.75;4148788;28;20141;-65
2022/11/28 02:08:52;;;;;;;7.38;4.72;;;;;;;6.53;68.90;100444.25;4149048;28;20488;-64
2022/11/28 02:11:17;;;;;;;6.53;4.38;;;;;;;6.55;68.89;100439.13;4150207;28;20452;-64
2022/11/28 02:13:36;;;;;;;7.15;4.38;;;;;;;6.49;68.69;100431.19;4149280;28;20519;-64
2022/11/28 02:15:58;;;;;;;7.53;4.65;;;;;;;6.51;68.97;100426.94;4149856;28;20048;-64
2022/11/28 02:18:18;;;;;;;6.85;4.20;;;;;;;6.48;69.14;100432.88;4150092;28;20041;-64
2022/11/28 02:20:50;;;;;;;7.68;4.93;;;;;;;6.45;69.18;100446.59;4149954;28;20034;-64
2022/11/28 02:23:03;;;;;;;6.80;4.57;;;;;;;6.45;68.71;100440.53;4136421;28;20044;-64
2022/11/28 02:25:25;;;;;;;8.40;4.90;;;;;;;6.45;68.25;100440.53;4148095;28;20539;-65
2022/11/28 02:28:02;;;;;;;5.85;3.83;;;;;;;6.50;68.34;100433.81;4149527;28;20606;-65
2022/11/28 02:30:21;;;;;;;7.68;4.80;;;;;;;6.46;68.03;100447.47;4149931;28;20092;-65
2022/11/28 02:32:35;;;;;;;6.40;4.38;;;;;;;6.45;68.09;100445.72;4150017;28;20495;-64
2022/11/28 02:34:45;;;;;;;7.05;4.60;;;;;;;6.46;68.33;100442.31;4148854;28;20064;-65
2022/11/28 02:36:56;;;;;;;8.02;4.03;;;;;;;6.49;68.12;100444.97;4149758;28;20038;-64
2022/11/28 02:39:08;;;;;;;8.98;4.60;;;;;;;6.54;68.33;100440.84;4149896;28;20396;-64
2022/11/28 02:41:20;;;;;;;7.15;4.55;;;;;;;6.53;68.13;100441.66;4149693;28;20128;-65
2022/11/28 02:43:32;;;;;;;5.97;3.97;;;;;;;6.48;68.11;100440.63;4147696;28;20038;-64
2022/11/28 02:45:42;;;;;;;7.95;5.13;;;;;;;6.48;68.11;100443.22;4148653;28;20516;-65
2022/11/28 02:47:50;;;;;;;7.45;4.47;;;;;;;6.50;67.85;100443.25;4148665;28;20042;-64
2022/11/28 02:49:58;;;;;;;8.20;4.47;;;;;;;6.50;67.86;100440.69;4149427;28;20108;-65
2022/11/28 02:52:06;;;;;;;7.00;4.47;;;;;;;6.56;67.44;100443.47;4140323;28;20088;-64
2022/11/28 02:54:13;;;;;;;6.78;4.82;;;;;;;6.53;67.78;100433.91;4149083;28;20030;-64
2022/11/28 02:56:16;;;;;;;7.57;4.50;;;;;;;6.54;67.94;100438.25;4149774;28;20037;-65
2022/11/28 02:58:19;;;;;;;7.75;5.00;;;;;;;6.55;67.27;100439.13;4148408;28;20053;-65
2022/11/28 03:00:28;;;;;;;7.00;4.43;;;;;;;6.52;66.97;100431.28;4149692;28;20496;-65
2022/11/28 03:02:32;;;;;;;7.63;4.22;;;;;;;6.54;66.68;100434.78;4149794;28;20049;-65
2022/11/28 03:04:43;;;;;;;;;;;;;;;6.44;66.46;100431.06;4149258;28;20063;-65
2022/11/28 03:06:58;;;;;;;7.93;4.72;;;;;;;6.44;67.44;100426.75;4149242;28;19932;-65
2022/11/28 03:09:26;;;;;;;6.18;4.15;;;;;;;6.32;67.28;100439.28;4149583;28;20050;-65
2022/11/28 03:11:43;;;;;;;8.70;4.85;;;;;;;6.15;67.06;100436.19;4138418;28;20038;-65
2022/11/28 03:13:54;;;;;;;8.27;4.43;;;;;;;6.07;67.05;100429.91;4148569;28;20034;-65
2022/11/28 03:16:03;;;;;;;9.60;4.85;;;;;;;6.09;67.00;100429.13;4149472;28;20042;-65
2022/11/28 03:18:13;;;;;;;7.50;4.70;;;;;;;6.18;67.18;100415.63;4149027;28;20046;-65
2022/11/28 03:20:22;;;;;;;10.05;4.65;;;;;;;6.22;67.33;100412.31;4149347;28;20321;-65
2022/11/28 03:22:30;;;;;;;6.07;4.18;;;;;;;6.25;67.95;100417.59;4149373;28;20048;-64
2022/11/28 03:24:38;;;;;;;8.93;5.05;;;;;;;6.25;67.63;100412.41;4147832;28;20034;-65
2022/11/28 03:26:51;;;;;;;7.18;4.40;;;;;;;6.34;67.62;100418.69;4149258;28;20046;-65
2022/11/28 03:29:00;;;;;;;10.05;5.38;;;;;;;6.27;67.66;100418.50;4149143;28;20305;-65
2022/11/28 03:31:07;;;;;;;7.80;4.60;;;;;;;6.33;67.81;100419.53;4148952;28;20125;-65
2022/11/28 03:33:14;;;;;;;8.15;4.72;;;;;;;6.36;67.79;100415.31;4148803;28;20046;-64
2022/11/28 03:35:22;;;;;;;8.55;5.60;;;;;;;6.33;67.53;100419.53;4147317;28;20073;-65
2022/11/28 03:37:29;;;;;;;10.07;6.03;;;;;;;6.32;67.10;100417.75;4147631;28;20034;-65
2022/11/28 03:39:37;;;;;;;8.88;5.38;;;;;;;6.35;67.59;100408.41;4149122;28;20408;-65
2022/11/28 03:41:44;;;;;;;7.45;5.20;;;;;;;6.38;68.00;100415.38;4148814;28;20435;-65
2022/11/28 03:43:54;;;;;;;10.20;5.43;;;;;;;6.38;67.87;100405.03;4148055;28;20033;-65
2022/11/28 03:46:05;;;;;;;9.95;5.30;;;;;;;6.37;67.91;100411.91;4147418;28;20050;-64
2022/11/28 03:48:12;;;;;;;9.70;5.78;;;;;;;6.39;67.43;100404.22;4148208;28;20096;-64
2022/11/28 03:50:20;;;;;;;8.02;4.78;;;;;;;6.40;67.59;100408.56;4147371;28;20474;-64
2022/11/28 03:52:28;;;;;;;6.45;4.63;;;;;;;6.36;67.65;100405.00;4147131;28;20492;-64
2022/11/28 03:54:35;;;;;;;8.25;5.68;;;;;;;6.33;68.02;100402.31;4147281;28;20037;-64
2022/11/28 03:56:45;;;;;;;8.68;5.53;;;;;;;6.29;68.02;100400.47;4148475;28;20136;-64
2022/11/28 03:58:55;;;;;;;7.68;5.68;;;;;;;6.26;67.86;100403.84;4148586;28;20454;-64
2022/11/28 04:01:08;;;;;;;6.85;4.60;;;;;;;6.27;68.45;100397.84;4147219;28;20045;-64
2022/11/28 04:03:20;;;;;;;9.73;5.78;;;;;;;6.28;68.53;100396.16;4148196;28;20037;-64
2022/11/28 04:05:32;;;;;;;8.40;5.82;;;;;;;6.26;68.42;100397.78;4148245;28;20052;-64
2022/11/28 04:07:42;;;;;;;9.45;5.32;;;;;;;6.22;68.82;100395.94;4148471;28;20038;-64
2022/11/28 04:09:49;;;;;;;7.28;4.90;;;;;;;6.13;68.23;100406.84;4148364;28;20041;-64
2022/11/28 04:11:59;;;;;;;9.43;6.13;;;;;;;6.06;68.37;100413.56;4136015;28;20042;-64
2022/11/28 04:14:08;;;;;;;11.13;7.13;;;;;;;5.96;68.54;100408.88;4147549;28;20041;-64
2022/11/28 04:16:18;;;;;;;9.20;5.88;;;;;;;5.88;68.96;100411.19;4146524;28;20084;-65
2022/11/28 04:18:29;;;;;;;10.02;5.90;;;;;;;5.84;68.85;100416.22;4148345;28;20045;-65
2022/11/28 04:20:41;;;;;;;11.00;7.68;;;;;;;5.83;69.11;100412.78;4148293;28;20046;-65
2022/11/28 04:22:48;;;;;;;9.98;7.15;;;;;;;5.84;69.04;100414.53;4147897;28;20034;-65
2022/11/28 04:24:54;;;;;;;13.48;8.68;;;;;;;5.84;68.98;100414.53;4147528;28;20066;-65
2022/11/28 04:27:02;;;;;;;19.10;11.50;;;;;;;5.79;68.99;100413.50;4146513;28;20033;-65
2022/11/28 04:29:08;;;;;;;17.02;11.13;;;;;;;5.81;69.12;100414.44;4162273;28;20065;-64
2022/11/28 04:31:12;;;;;;;16.13;10.90;;;;;;;5.87;69.01;100414.63;4148061;28;20038;-65
2022/11/28 04:33:17;;;;;;;11.95;8.32;;;;;;;6.01;69.31;100409.94;4147573;28;20052;-65
2022/11/28 04:35:25;;;;;;;9.57;6.93;;;;;;;6.08;69.05;100398.13;4148059;28;20037;-65
2022/11/28 04:37:32;;;;;;;10.98;6.50;;;;;;;6.06;68.68;100403.22;4148046;28;20508;-65
2022/11/28 04:39:37;;;;;;;10.00;5.50;;;;;;;6.03;68.78;100405.72;4148038;28;20038;-65
2022/11/28 04:41:42;;;;;;;;;;;;;;;5.93;69.47;100396.75;4147136;28;20186;-65
2022/11/28 04:43:51;;;;;;;8.23;6.20;;;;;;;5.98;69.23;100398.66;4146096;28;20020;-65
2022/11/28 04:45:57;;;;;;;9.35;5.68;;;;;;;6.00;68.95;100399.56;4144980;28;20100;-65
2022/11/28 04:48:01;;;;;;;9.15;6.57;;;;;;;6.04;68.82;100381.63;4148081;28;20034;-66
2022/11/28 04:50:05;;;;;;;9.20;5.65;;;;;;;6.01;69.25;100386.72;4147684;28;20069;-64
2022/11/28 04:52:12;;;;;;;9.07;6.07;;;;;;;6.00;69.52;100384.09;4147769;28;20041;-63
2022/11/28 04:54:22;;;;;;;8.65;5.50;;;;;;;6.00;69.43;100382.41;4147185;28;20046;-63
2022/11/28 04:56:31;;;;;;;8.60;5.40;;;;;;;5.97;69.57;100389.13;4148044;28;20594;-63
2022/11/28 04:58:38;;;;;;;8.45;5.45;;;;;;;5.95;69.59;100382.19;4147775;28;20081;-63
2022/11/28 05:00:43;;;;;;;10.35;5.47;;;;;;;5.98;69.62;100389.19;4149111;28;20044;-63
2022/11/28 05:02:50;;;;;;;8.90;5.93;;;;;;;5.99;69.44;100387.50;4146382;28;20041;-63
2022/11/28 05:04:54;;;;;;;6.80;4.95;;;;;;;5.98;69.87;100381.44;4129334;28;20038;-63
2022/11/28 05:07:01;;;;;;;8.80;6.25;;;;;;;6.00;69.93;100382.41;4147666;28;20052;-63
2022/11/28 05:09:04;;;;;;;9.00;5.53;;;;;;;5.98;70.14;100389.19;4143913;28;20041;-63
2022/11/28 05:11:08;;;;;;;7.75;5.03;;;;;;;5.99;69.87;100388.38;4145586;28;20038;-63
2022/11/28 05:13:11;;;;;;;7.63;5.53;;;;;;;6.01;69.94;100385.84;4145327;28;20124;-64
2022/11/28 05:15:17;;;;;;;8.40;5.95;;;;;;;6.01;69.83;100386.72;4146644;28;20069;-64
2022/11/28 05:17:20;;;;;;;9.13;6.22;;;;;;;6.01;70.09;100375.53;4147307;28;20049;-63
2022/11/28 05:19:23;;;;;;;7.97;5.40;;;;;;;6.00;70.26;100374.66;4147730;28;20052;-63
2022/11/28 05:21:26;;;;;;;7.05;4.60;;;;;;;5.98;70.14;100373.72;4147756;28;20091;-63
2022/11/28 05:23:29;;;;;;;10.73;5.72;;;;;;;6.05;71.28;100361.88;4146355;28;20455;-63
2022/11/28 05:25:31;;;;;;;10.15;5.38;;;;;;;6.24;71.96;100371.94;4141600;28;20586;-63
2022/11/28 05:27:36;;;;;;;8.82;5.65;;;;;;;6.23;70.61;100365.00;4146930;28;20060;-63
2022/11/28 05:29:42;;;;;;;7.78;5.47;;;;;;;6.16;70.75;100367.38;4145276;28;20041;-63
2022/11/28 05:31:51;;;;;;;7.95;5.22;;;;;;;6.11;70.77;100367.22;4139714;28;20034;-63
2022/11/28 05:33:54;;;;;;;7.15;5.05;;;;;;;6.03;71.18;100367.00;4145686;28;20429;-63
2022/11/28 05:36:02;;;;;;;7.50;5.82;;;;;;;6.06;71.16;100366.19;4146455;28;20129;-63
2022/11/28 05:38:04;;;;;;;7.57;5.30;;;;;;;6.04;70.70;100376.47;4146284;28;20077;-63
2022/11/28 05:40:15;;;;;;;7.50;5.07;;;;;;;6.14;70.35;100357.00;4147074;28;20392;-63
2022/11/28 05:42:18;;;;;;;8.77;6.07;;;;;;;6.05;70.31;100364.47;4150863;28;20042;-64
2022/11/28 05:44:22;;;;;;;8.40;5.80;;;;;;;6.02;70.55;100361.78;4149892;28;20451;-63
2022/11/28 05:46:29;;;;;;;8.80;6.68;;;;;;;6.04;70.85;100368.72;4150824;28;20099;-63
2022/11/28 05:48:32;;;;;;;9.18;6.22;;;;;;;6.04;70.54;100366.16;4149703;28;20045;-64
2022/11/28 05:50:35;;;;;;;7.97;5.80;;;;;;;6.02;70.56;100365.25;4149604;28;20050;-63
2022/11/28 05:52:41;;;;;;;8.40;5.35;;;;;;;6.01;70.53;100367.78;4150835;28;20058;-63
2022/11/28 05:54:44;;;;;;;7.93;5.55;;;;;;;6.02;71.10;100366.97;4148822;28;20407;-63
2022/11/28 05:56:47;;;;;;;8.00;5.68;;;;;;;6.11;70.62;100364.66;4150708;28;20125;-63
2022/11/28 05:58:51;;;;;;;10.52;5.88;;;;;;;6.09;70.55;100356.88;4150980;28;20052;-63
2022/11/28 06:00:56;;;;;;;9.32;5.50;;;;;;;6.10;70.86;100357.72;4150587;28;20084;-63
2022/11/28 06:03:00;;;;;;;7.88;5.30;;;;;;;6.08;71.14;100356.81;4150556;28;20046;-63
2022/11/28 06:05:04;;;;;;;8.13;6.03;;;;;;;6.09;71.25;100353.41;4149696;28;20073;-63
2022/11/28 06:07:26;;;;;;;10.20;6.20;;;;;;;6.07;70.66;100353.34;4150556;28;20476;-63
2022/11/28 06:09:29;;;;;;;8.63;6.43;;;;;;;6.07;70.71;100357.63;4149200;28;20074;-63
2022/11/28 06:11:34;;;;;;;8.88;5.75;;;;;;;6.04;70.67;100352.38;4150364;28;20100;-63
2022/11/28 06:13:37;;;;;;;;;;;;;;;5.97;70.24;100353.00;4150010;28;20381;-63
2022/11/28 06:15:43;;;;;;;8.07;6.00;;;;;;;5.98;70.47;100349.63;4150345;28;19921;-63
2022/11/28 06:17:47;;;;;;;8.35;5.47;;;;;;;6.02;70.23;100354.06;4149291;28;20484;-63
2022/11/28 06:19:50;;;;;;;7.88;5.40;;;;;;;6.02;70.82;100351.47;4149018;28;20046;-63
2022/11/28 06:21:55;;;;;;;8.20;5.90;;;;;;;5.94;70.81;100357.25;4149044;28;20495;-63
2022/11/28 06:23:59;;;;;;;9.32;6.95;;;;;;;5.88;70.79;100369.91;4149527;28;20046;-63
2022/11/28 06:26:05;;;;;;;9.18;6.57;;;;;;;5.94;70.38;100374.41;4149394;28;20069;-63
2022/11/28 06:28:07;;;;;;;7.65;5.40;;;;;;;5.97;70.17;100378.78;4126957;28;20046;-63
2022/11/28 06:30:11;;;;;;;8.45;6.43;;;;;;;6.02;69.83;100372.13;4144951;28;20060;-63
2022/11/28 06:32:13;;;;;;;7.93;5.65;;;;;;;6.03;69.66;100371.28;4150286;28;20042;-63
2022/11/28 06:34:25;;;;;;;8.93;6.13;;;;;;;6.06;69.95;100368.78;4149448;28;20054;-63
2022/11/28 06:36:29;;;;;;;11.43;6.57;;;;;;;6.10;70.16;100370.63;4165357;28;20049;-63
2022/11/28 06:38:32;;;;;;;8.45;5.97;;;;;;;6.11;70.18;100372.41;4150069;28;20042;-63
2022/11/28 06:40:37;;;;;;;8.85;6.05;;;;;;;6.12;69.99;100374.16;4148694;28;20499;-63
2022/11/28 06:42:40;;;;;;;10.30;6.53;;;;;;;6.11;70.67;100380.13;4149937;28;20076;-63
2022/11/28 06:44:43;;;;;;;9.15;6.60;;;;;;;6.13;70.72;100373.31;4164231;28;20128;-63
2022/11/28 06:46:46;;;;;;;8.13;5.80;;;;;;;6.10;70.43;100371.53;4165156;28;20046;-63
2022/11/28 06:48:50;;;;;;;10.75;7.35;;;;;;;6.11;70.06;100372.41;4148699;28;20599;-63
2022/11/28 06:51:02;;;;;;;9.23;6.38;;;;;;;6.12;70.35;100374.16;4150035;28;20041;-63
2022/11/28 06:53:04;;;;;;;9.50;6.60;;;;;;;6.07;70.58;100381.72;4149103;28;20096;-63
2022/11/28 06:55:08;;;;;;;9.25;5.80;;;;;;;6.05;70.59;100374.78;4149159;28;20052;-63
2022/11/28 06:57:11;;;;;;;10.77;6.45;;;;;;;5.99;69.81;100379.78;4149716;28;20038;-63
2022/11/28 06:59:14;;;;;;;10.18;6.72;;;;;;;6.00;70.11;100386.66;4149678;28;20607;-63
2022/11/28 07:01:19;;;;;;;9.90;6.68;;;;;;;6.04;69.45;100380.78;4149699;28;20042;-64
2022/11/28 07:03:22;;;;;;;10.85;6.60;;;;;;;6.07;70.11;100380.88;4149011;28;20467;-63
2022/11/28 07:05:26;;;;;;;10.82;6.55;;;;;;;6.10;69.92;100386.13;4149555;28;20488;-63
2022/11/28 07:07:30;;;;;;;10.60;6.82;;;;;;;6.11;70.13;100385.28;4149548;28;20041;-62
2022/11/28 07:09:33;;;;;;;10.20;6.93;;;;;;;6.08;70.48;100378.34;4148364;28;20046;-63
2022/11/28 07:11:36;;;;;;;8.35;6.00;;;;;;;6.11;70.51;100382.72;4133368;28;20047;-63
2022/11/28 07:13:40;;;;;;;9.90;6.50;;;;;;;6.14;70.49;100382.81;4132548;28;20573;-63
2022/11/28 07:15:48;;;;;;;10.43;6.57;;;;;;;6.16;70.09;100383.72;4133167;28;20045;-63
2022/11/28 07:17:51;;;;;;;9.15;6.05;;;;;;;6.16;70.60;100390.59;4133253;28;20173;-63
2022/11/28 07:19:54;;;;;;;8.65;6.30;;;;;;;6.13;70.48;100388.78;4132934;28;20046;-63
2022/11/28 07:21:57;;;;;;;9.57;6.95;;;;;;;6.13;70.17;100386.22;4133068;28;20038;-63
2022/11/28 07:24:01;;;;;;;9.10;6.07;;;;;;;6.11;70.63;100390.47;4132204;28;20088;-63
2022/11/28 07:26:05;;;;;;;9.48;6.38;;;;;;;6.07;70.11;100391.19;4133007;28;20085;-63
2022/11/28 07:28:08;;;;;;;9.40;6.07;;;;;;;6.08;70.11;100395.53;4131652;28;20046;-63
2022/11/28 07:30:11;;;;;;;9.63;6.97;;;;;;;6.12;69.81;100394.81;4132930;28;20484;-63
2022/11/28 07:32:14;;;;;;;9.65;6.93;;;;;;;6.14;70.12;100400.88;4133017;28;20104;-63
2022/11/28 07:34:17;;;;;;;10.05;6.22;;;;;;;6.21;69.97;100394.22;4130979;28;20474;-66
2022/11/28 07:36:21;;;;;;;9.48;6.70;;;;;;;6.24;70.48;100392.59;4132985;28;20496;-64
2022/11/28 07:38:24;;;;;;;12.00;8.48;;;;;;;6.25;70.14;100394.34;4132975;28;20532;-64
2022/11/28 07:40:28;;;;;;;10.68;7.45;;;;;;;6.26;70.16;100395.22;4132971;28;20451;-64
2022/11/28 07:42:31;;;;;;;10.10;7.45;;;;;;;6.28;70.85;100401.31;4132811;28;20038;-64
2022/11/28 07:44:38;;;;;;;10.35;7.85;;;;;;;6.28;70.73;100397.03;4131063;28;20122;-64
2022/11/28 07:46:41;;;;;;;8.98;6.47;;;;;;;6.32;71.03;100389.38;4132709;28;20081;-64
2022/11/28 07:48:45;;;;;;;9.85;6.85;;;;;;;6.32;71.37;100391.94;4132757;28;20484;-65
2022/11/28 07:50:48;;;;;;;9.80;6.30;;;;;;;6.34;70.92;100386.00;4147631;28;20092;-62
2022/11/28 07:52:50;;;;;;;11.18;7.63;;;;;;;6.38;71.43;100389.53;4132630;28;20049;-63
2022/11/28 07:54:53;;;;;;;9.82;7.03;;;;;;;6.42;70.95;100388.81;4131908;28;20046;-63
2022/11/28 07:56:57;;;;;;;9.38;6.45;;;;;;;6.44;70.63;100384.59;4132551;28;20065;-64
2022/11/28 07:59:16;;;;;;;12.25;8.40;;;;;;;6.43;71.34;100395.72;4132623;28;20050;-63
2022/11/28 08:01:22;;;;;;;12.05;8.27;;;;;;;6.48;71.16;100388.97;4115209;28;20047;-64
2022/11/28 08:03:25;;;;;;;10.63;6.97;;;;;;;6.47;71.26;100382.09;4131299;28;20034;-64
2022/11/28 08:05:27;;;;;;;13.15;8.35;;;;;;;6.51;70.88;100386.50;4130321;28;20046;-63
2022/11/28 08:07:30;;;;;;;11.30;7.85;;;;;;;6.50;71.33;100386.44;4132457;28;20038;-64
2022/11/28 08:09:33;;;;;;;11.57;7.25;;;;;;;6.50;70.91;100382.19;4132449;28;20121;-63
2022/11/28 08:11:36;;;;;;;11.90;8.63;;;;;;;6.50;70.69;100383.88;4132394;28;20034;-63
2022/11/28 08:13:40;;;;;;;13.85;7.70;;;;;;;6.49;70.59;100385.59;4131549;28;20085;-63
2022/11/28 08:15:43;;;;;;;11.98;8.00;;;;;;;6.50;70.89;100387.34;4132477;28;20085;-63
2022/11/28 08:17:46;;;;;;;10.55;6.90;;;;;;;6.59;71.09;100392.75;4132294;28;20046;-64
2022/11/28 08:19:49;;;;;;;12.85;8.15;;;;;;;6.59;70.76;100392.75;4132291;28;20542;-64
2022/11/28 08:21:52;;;;;;;10.98;7.95;;;;;;;6.62;70.84;100392.00;4132397;28;20467;-64
2022/11/28 08:23:58;;;;;;;10.20;7.63;;;;;;;6.62;70.48;100389.41;4131546;28;20062;-64
2022/11/28 08:26:01;;;;;;;10.85;7.85;;;;;;;6.69;70.23;100393.03;4147168;28;20067;-64
2022/11/28 08:28:04;;;;;;;12.10;8.82;;;;;;;6.69;70.54;100393.03;4142657;28;20050;-64
2022/11/28 08:30:10;;;;;;;11.48;7.18;;;;;;;6.72;70.19;100396.59;4147232;28;20046;-64
2022/11/28 08:32:13;;;;;;;11.40;8.05;;;;;;;6.76;69.96;100392.38;4163709;28;20511;-64
2022/11/28 08:34:15;;;;;;;12.98;8.43;;;;;;;6.74;70.17;100391.47;4147587;28;20492;-64
2022/11/28 08:36:19;;;;;;;12.20;8.98;;;;;;;6.74;70.16;100391.47;4148464;28;20042;-64
2022/11/28 08:38:22;;;;;;;12.35;8.18;;;;;;;6.73;70.39;100390.59;4148218;28;20080;-64
2022/11/28 08:40:25;;;;;;;12.63;8.27;;;;;;;6.74;70.24;100386.28;4148175;28;20048;-64
2022/11/28 08:42:28;;;;;;;13.73;10.90;;;;;;;6.79;70.03;100385.59;4148083;28;20520;-64
2022/11/28 08:44:31;;;;;;;13.38;9.60;;;;;;;6.77;69.85;100381.22;4147378;28;20504;-64
2022/11/28 08:46:35;;;;;;;13.18;9.32;;;;;;;6.75;70.29;100388.06;4148064;28;20041;-64
2022/11/28 08:48:40;;;;;;;11.75;8.55;;;;;;;6.80;70.38;100391.63;4148127;28;20399;-64
2022/11/28 08:50:47;;;;;;;14.60;9.02;;;;;;;6.84;70.01;100388.31;4148257;28;20042;-64
2022/11/28 08:52:50;;;;;;;12.88;9.57;;;;;;;6.86;70.00;100396.09;4148091;28;20389;-64
2022/11/28 08:54:53;;;;;;;15.25;10.65;;;;;;;6.91;69.91;100391.94;4147196;28;20492;-64
2022/11/28 08:56:56;;;;;;;15.07;9.93;;;;;;;6.90;69.43;100388.47;4148001;28;20057;-65
2022/11/28 08:59:00;;;;;;;13.35;9.48;;;;;;;6.95;69.83;100386.00;4147961;28;20041;-64
2022/11/28 09:01:03;;;;;;;13.80;10.03;;;;;;;6.90;69.46;100383.31;4163033;28;20045;-64
2022/11/28 09:03:15;;;;;;;12.55;9.88;;;;;;;6.89;69.62;100386.75;4147778;28;20646;-64
2022/11/28 09:05:18;;;;;;;14.82;9.38;;;;;;;6.96;69.71;100388.63;4147920;28;20042;-64
2022/11/28 09:07:20;;;;;;;15.73;9.65;;;;;;;7.03;68.91;100391.41;4147776;28;20380;-64
2022/11/28 09:09:23;;;;;;;13.68;10.52;;;;;;;6.97;69.38;100382.63;4147796;28;20121;-64
2022/11/28 09:11:31;;;;;;;15.48;11.32;;;;;;;6.94;69.19;100385.13;4146496;28;20077;-64
2022/11/28 09:13:34;;;;;;;15.32;10.75;;;;;;;6.90;69.33;100391.06;4140319;28;20562;-64
2022/11/28 09:15:39;;;;;;;12.88;9.93;;;;;;;6.91;69.93;100389.38;4144133;28;20535;-64
2022/11/28 09:17:42;;;;;;;16.42;11.07;;;;;;;6.97;69.46;100384.34;4147756;28;20476;-64
2022/11/28 09:19:46;;;;;;;16.02;10.82;;;;;;;6.94;69.28;100373.94;4147705;28;20034;-64
2022/11/28 09:21:49;;;;;;;14.48;11.13;;;;;;;6.96;69.26;100388.63;4147732;28;20042;-64
2022/11/28 09:23:59;;;;;;;14.82;10.95;;;;;;;7.01;69.04;100395.66;4146243;28;20050;-64
2022/11/28 09:26:07;;;;;;;17.55;12.38;;;;;;;7.08;68.06;100392.41;4147338;28;20045;-64
2022/11/28 09:28:10;;;;;;;17.65;11.60;;;;;;;7.03;68.14;100388.81;4147827;28;20412;-63
2022/11/28 09:30:14;;;;;;;19.58;11.77;;;;;;;6.98;67.41;100391.28;4147700;28;20450;-63
2022/11/28 09:32:17;;;;;;;16.40;11.60;;;;;;;6.97;67.62;100398.16;4130222;28;20043;-63
2022/11/28 09:34:20;;;;;;;13.95;10.60;;;;;;;6.88;68.17;100392.72;4146823;28;20514;-64
2022/11/28 09:36:27;;;;;;;16.75;11.13;;;;;;;6.88;68.01;100400.47;4147609;28;20041;-63
2022/11/28 09:38:29;;;;;;;15.82;11.27;;;;;;;6.97;67.81;100387.81;4147630;28;20484;-63
2022/11/28 09:40:36;;;;;;;15.45;11.43;;;;;;;7.05;68.27;100392.31;4147551;28;20046;-63
2022/11/28 09:42:42;;;;;;;14.43;10.95;;;;;;;7.02;68.18;100392.22;4147931;28;20078;-64
2022/11/28 09:44:51;;;;;;;15.80;11.75;;;;;;;6.95;68.17;100392.06;4145545;28;20112;-63
2022/11/28 09:46:58;;;;;;;15.55;10.80;;;;;;;7.06;68.87;100386.31;4147781;28;20053;-63
2022/11/28 09:49:05;;;;;;;14.18;11.05;;;;;;;6.91;68.30;100395.41;4147760;28;20042;-63
2022/11/28 09:51:23;;;;;;;15.52;11.32;;;;;;;6.98;67.83;100392.16;4147536;28;20053;-63